Time;durP1;ratioP1;P1;durP2;ratioP2;P2;SDS_P1;SDS_P2;PMS_P1;PMS_P2;Temp;Humidity;BMP_temperature;BMP_pressure;BME280_temperature;BME280_humidity;BME280_pressure;Samples;Min_cycle;Max_cycle;Signal;HPM_P1;HPM_P2
2023/05/06 00:02:07;;;;;;;54.63;31.37;;;;;;;10.05;100.00;94756.94;5064371;28;20209;-76
2023/05/06 00:04:34;;;;;;;55.53;31.63;;;;;;;10.12;100.00;94762.88;5071099;28;20209;-76
2023/05/06 00:07:01;;;;;;;50.63;27.47;;;;;;;10.18;100.00;94765.47;5061801;28;20201;-76
2023/05/06 00:09:28;;;;;;;51.57;29.17;;;;;;;10.25;100.00;94762.78;5065118;28;20823;-76
2023/05/06 00:11:54;;;;;;;50.23;29.13;;;;;;;10.35;100.00;94764.91;5082796;28;20603;-76
2023/05/06 00:14:21;;;;;;;51.73;28.47;;;;;;;10.39;100.00;94771.28;5078909;28;20229;-76
2023/05/06 00:16:50;;;;;;;49.10;26.50;;;;;;;10.39;100.00;94763.50;5066690;28;20205;-77
2023/05/06 00:19:17;;;;;;;44.87;25.73;;;;;;;10.45;100.00;94766.00;5071134;28;20288;-76
2023/05/06 00:21:43;;;;;;;36.30;20.87;;;;;;;10.49;100.00;94761.97;5066863;28;20276;-76
2023/05/06 00:24:11;;;;;;;34.27;19.33;;;;;;;10.51;100.00;94765.16;5066280;28;20193;-77
2023/05/06 00:26:38;;;;;;;34.33;20.40;;;;;;;10.42;100.00;94743.06;5070997;28;20199;-77
2023/05/06 00:29:04;;;;;;;45.70;24.33;;;;;;;10.38;100.00;94757.50;5062919;28;20197;-76
2023/05/06 00:31:31;;;;;;;46.90;25.83;;;;;;;10.39;100.00;94760.91;5059463;28;20684;-75
2023/05/06 00:33:59;;;;;;;48.90;24.80;;;;;;;10.36;100.00;94762.09;5070342;28;20217;-76
2023/05/06 00:36:26;;;;;;;44.17;23.70;;;;;;;10.36;100.00;94756.88;5066459;28;20729;-75
2023/05/06 00:38:53;;;;;;;42.47;23.43;;;;;;;10.41;100.00;94761.47;5066104;28;20214;-76
2023/05/06 00:41:20;;;;;;;42.10;23.63;;;;;;;10.39;100.00;94758.28;5070240;28;20193;-76
2023/05/06 00:43:47;;;;;;;52.67;28.17;;;;;;;10.37;100.00;94755.09;5059761;28;20700;-76
2023/05/06 00:46:16;;;;;;;49.27;28.23;;;;;;;10.36;100.00;94761.31;5066071;28;20698;-76
2023/05/06 00:48:44;;;;;;;56.17;28.67;;;;;;;10.23;100.00;94757.81;5069643;28;20675;-76
2023/05/06 00:51:12;;;;;;;56.10;29.43;;;;;;;10.19;100.00;94758.44;5063193;28;20725;-76
2023/05/06 00:53:39;;;;;;;49.67;24.63;;;;;;;10.16;100.00;94751.88;5059914;28;20237;-76
2023/05/06 00:56:07;;;;;;;44.77;23.83;;;;;;;10.27;100.00;94756.38;5068615;28;20201;-77
2023/05/06 00:58:34;;;;;;;41.30;23.77;;;;;;;10.25;100.00;94753.19;5068156;28;20213;-77
2023/05/06 01:01:01;;;;;;;35.37;19.57;;;;;;;10.29;100.00;94757.97;5069576;28;20616;-77
2023/05/06 01:03:28;;;;;;;34.53;19.97;;;;;;;10.27;100.00;94750.41;5091952;28;20230;-77
2023/05/06 01:06:07;;;;;;;33.03;20.67;;;;;;;10.27;100.00;94749.59;5072809;28;20220;-76
2023/05/06 01:08:44;;;;;;;28.67;17.43;;;;;;;10.16;100.00;94753.66;5068206;28;20623;-76
2023/05/06 01:11:16;;;;;;;33.80;18.57;;;;;;;9.90;100.00;94743.50;5068144;28;20202;-77
2023/05/06 01:13:49;;;;;;;33.63;18.30;;;;;;;9.45;100.00;94730.59;5073941;28;20267;-77
2023/05/06 01:16:20;;;;;;;33.10;17.90;;;;;;;9.51;100.00;94747.94;5076196;28;20277;-77
2023/05/06 01:18:49;;;;;;;31.87;17.53;;;;;;;9.51;100.00;94737.56;5086613;28;20718;-77
2023/05/06 01:21:18;;;;;;;29.73;17.93;;;;;;;9.62;100.00;94741.28;5073860;28;20589;-76
2023/05/06 01:23:54;;;;;;;37.07;20.67;;;;;;;9.65;100.00;94741.66;5078668;28;20647;-77
2023/05/06 01:26:21;;;;;;;40.93;22.43;;;;;;;9.76;100.00;94739.38;5083723;28;20207;-78
2023/05/06 01:28:48;;;;;;;44.13;23.43;;;;;;;9.85;100.00;94744.09;5073469;28;20603;-77
2023/05/06 01:31:23;;;;;;;41.83;23.67;;;;;;;9.77;100.00;94739.19;5082618;28;20208;-77
2023/05/06 01:34:02;;;;;;;49.03;25.70;;;;;;;9.86;100.00;94744.91;5080572;28;20205;-77
2023/05/06 01:36:38;;;;;;;60.40;29.87;;;;;;;9.86;100.00;94743.09;5072503;28;20188;-76
2023/05/06 01:39:14;;;;;;;53.97;29.77;;;;;;;9.84;100.00;94742.50;5085875;28;20192;-77
2023/05/06 01:41:41;;;;;;;60.97;31.93;;;;;;;9.85;100.00;94736.31;5077933;28;20554;-77
2023/05/06 01:44:11;;;;;;;60.53;35.13;;;;;;;9.79;100.00;94744.94;5068804;28;20222;-77
2023/05/06 01:46:38;;;;;;;76.47;38.60;;;;;;;9.79;100.00;94742.34;5073453;28;20194;-76
2023/05/06 01:49:10;;;;;;;67.43;37.57;;;;;;;9.77;100.00;94738.38;5069212;28;20205;-77
2023/05/06 01:51:37;;;;;;;71.77;37.57;;;;;;;9.72;100.00;94738.22;5069283;28;20198;-77
2023/05/06 01:54:04;;;;;;;50.97;28.17;;;;;;;9.77;100.00;94734.00;5073113;28;20843;-77
2023/05/06 01:56:32;;;;;;;30.73;19.07;;;;;;;9.80;100.00;94737.97;5075910;28;20211;-77
2023/05/06 01:58:59;;;;;;;23.40;14.30;;;;;;;9.62;100.00;94741.28;5083612;28;20210;-77
2023/05/06 02:01:26;;;;;;;23.63;14.27;;;;;;;9.55;100.00;94736.13;5089543;28;20196;-77
2023/05/06 02:03:53;;;;;;;23.73;14.20;;;;;;;9.47;100.00;94732.97;5087987;28;20215;-76
2023/05/06 02:06:20;;;;;;;20.23;12.40;;;;;;;9.42;100.00;94738.00;5088275;28;20220;-77
2023/05/06 02:08:46;;;;;;;19.40;12.60;;;;;;;9.37;100.00;94722.28;5093179;28;20192;-78
2023/05/06 02:11:13;;;;;;;18.87;11.93;;;;;;;9.39;100.00;94728.03;5087891;28;20260;-78
2023/05/06 02:13:41;;;;;;;23.23;14.30;;;;;;;9.39;100.00;94730.63;5088851;28;20204;-78
2023/05/06 02:16:08;;;;;;;23.67;13.30;;;;;;;9.31;100.00;94728.28;5086069;28;20226;-77
2023/05/06 02:18:35;;;;;;;23.67;13.00;;;;;;;9.27;100.00;94727.09;5061765;28;20292;-77
2023/05/06 02:21:02;;;;;;;20.10;12.60;;;;;;;9.19;100.00;94730.75;5051571;28;20233;-77
2023/05/06 02:23:29;;;;;;;22.27;12.90;;;;;;;9.23;100.00;94731.94;5069097;28;20671;-77
2023/05/06 02:25:57;;;;;;;29.70;17.30;;;;;;;9.19;100.00;94730.75;5067919;28;20201;-78
2023/05/06 02:28:24;;;;;;;29.07;15.57;;;;;;;9.23;100.00;94731.13;5064173;28;20963;-78
2023/05/06 02:30:56;;;;;;;28.00;16.50;;;;;;;9.24;100.00;94736.09;5072196;28;20224;-77
2023/05/06 02:33:23;;;;;;;23.80;15.17;;;;;;;9.31;100.00;94730.88;5068374;28;20240;-77
2023/05/06 02:35:50;;;;;;;22.70;14.57;;;;;;;9.25;100.00;94732.50;5068697;28;20315;-76
2023/05/06 02:38:17;;;;;;;28.10;17.93;;;;;;;9.33;100.00;94745.22;5072388;28;20280;-76
2023/05/06 02:40:44;;;;;;;25.23;15.53;;;;;;;9.26;100.00;94728.94;5068124;28;20220;-76
2023/05/06 02:43:11;;;;;;;27.37;13.30;;;;;;;9.21;100.00;94738.31;5068017;28;20205;-76
2023/05/06 02:45:38;;;;;;;18.47;12.50;;;;;;;8.93;100.00;94731.66;5072092;28;20638;-76
2023/05/06 02:48:06;;;;;;;22.93;12.53;;;;;;;8.51;100.00;94730.38;5067866;28;20671;-76
2023/05/06 02:50:34;;;;;;;19.70;13.03;;;;;;;8.42;100.00;94738.59;5063815;28;20212;-76
2023/05/06 02:53:01;;;;;;;18.97;13.47;;;;;;;8.47;100.00;94736.19;5079238;28;20250;-77
2023/05/06 02:55:28;;;;;;;28.87;15.60;;;;;;;8.54;100.00;94731.81;5081053;28;20220;-76
2023/05/06 02:57:55;;;;;;;25.27;13.90;;;;;;;8.66;100.00;94734.56;5074849;28;20259;-77
2023/05/06 03:00:21;;;;;;;24.33;13.90;;;;;;;8.76;100.00;94742.69;5091599;28;20668;-76
2023/05/06 03:02:48;;;;;;;22.33;13.13;;;;;;;8.89;100.00;94751.19;5080186;28;20208;-76
2023/05/06 03:05:16;;;;;;;27.50;13.10;;;;;;;8.98;100.00;94744.78;5079117;28;20190;-77
2023/05/06 03:07:43;;;;;;;22.20;12.60;;;;;;;8.93;100.00;94739.44;5090780;28;20571;-77
2023/05/06 03:10:11;;;;;;;23.47;12.23;;;;;;;8.97;100.00;94745.00;5083547;28;20200;-78
2023/05/06 03:12:37;;;;;;;22.07;12.70;;;;;;;8.85;100.00;94741.47;5080763;28;20548;-78
2023/05/06 03:15:05;;;;;;;18.30;11.30;;;;;;;8.80;100.00;94741.28;5088680;28;20726;-78
2023/05/06 03:17:32;;;;;;;22.37;12.80;;;;;;;8.87;100.00;94749.81;5076656;28;20193;-78
2023/05/06 03:19:59;;;;;;;18.03;11.73;;;;;;;9.00;100.00;94749.78;5079459;28;20254;-79
2023/05/06 03:22:27;;;;;;;20.13;11.33;;;;;;;9.07;100.00;94753.94;5084932;28;20737;-78
2023/05/06 03:24:54;;;;;;;18.97;11.63;;;;;;;9.11;100.00;94755.13;5081782;28;20573;-77
2023/05/06 03:27:21;;;;;;;23.37;14.07;;;;;;;9.13;100.00;94760.88;5073325;28;20201;-78
2023/05/06 03:29:48;;;;;;;23.70;11.93;;;;;;;9.12;100.00;94748.91;5089497;28;20196;-77
2023/05/06 03:32:14;;;;;;;18.53;11.53;;;;;;;9.17;100.00;94763.88;5071116;28;20193;-76
2023/05/06 03:34:41;;;;;;;18.43;12.47;;;;;;;9.20;100.00;94765.25;5083922;28;20686;-76
2023/05/06 03:37:10;;;;;;;25.60;12.77;;;;;;;9.17;100.00;94763.06;5091078;28;20204;-77
2023/05/06 03:39:38;;;;;;;22.37;14.23;;;;;;;9.22;100.00;94774.41;5073954;28;20201;-77
2023/05/06 03:42:05;;;;;;;28.03;14.00;;;;;;;9.20;100.00;94768.66;5077385;28;20198;-77
2023/05/06 03:44:31;;;;;;;20.30;13.10;;;;;;;9.28;100.00;94777.97;5086886;28;20192;-76
2023/05/06 03:46:58;;;;;;;30.90;14.57;;;;;;;9.25;100.00;94774.00;5083712;28;20195;-77
2023/05/06 03:49:25;;;;;;;33.30;15.53;;;;;;;9.34;100.00;94774.56;5075685;28;20197;-77
2023/05/06 03:51:53;;;;;;;29.93;16.73;;;;;;;9.33;100.00;94778.94;5090136;28;20282;-77
2023/05/06 03:54:20;;;;;;;31.40;16.20;;;;;;;9.39;100.00;94775.53;5072331;28;20203;-77
2023/05/06 03:56:48;;;;;;;34.63;17.23;;;;;;;9.39;100.00;94780.72;5083596;28;20196;-77
2023/05/06 03:59:15;;;;;;;29.83;16.03;;;;;;;9.49;100.00;94781.06;5091065;28;20204;-77
2023/05/06 04:01:41;;;;;;;26.60;15.87;;;;;;;9.52;100.00;94783.22;5077179;28;20659;-80
2023/05/06 04:04:08;;;;;;;34.17;18.50;;;;;;;9.62;100.00;94778.41;5078008;28;20251;-79
2023/05/06 04:06:35;;;;;;;35.93;17.93;;;;;;;9.62;100.00;94778.41;5088569;28;20185;-79
2023/05/06 04:09:14;;;;;;;33.10;17.53;;;;;;;9.77;100.00;94793.69;5084386;28;20667;-78
2023/05/06 04:11:57;;;;;;;31.93;17.73;;;;;;;9.86;100.00;94791.63;5060066;28;20190;-79
2023/05/06 04:14:24;;;;;;;36.10;16.97;;;;;;;9.97;100.00;94796.94;5080272;28;20780;-79
2023/05/06 04:16:50;;;;;;;29.37;17.77;;;;;;;10.04;100.00;94805.47;5079469;28;20200;-76
2023/05/06 04:19:17;;;;;;;33.17;17.67;;;;;;;10.10;100.00;94796.84;5077957;28;20486;-75
2023/05/06 04:21:44;;;;;;;33.57;18.43;;;;;;;10.06;100.00;94797.47;5082336;28;20300;-76
2023/05/06 04:24:12;;;;;;;32.70;18.67;;;;;;;9.77;100.00;94798.88;5080530;28;20250;-77
2023/05/06 04:26:39;;;;;;;29.47;18.50;;;;;;;9.50;100.00;94795.63;5067699;28;20305;-76
2023/05/06 04:29:07;;;;;;;30.30;18.47;;;;;;;9.39;100.00;94798.06;5084656;28;20274;-76
2023/05/06 04:31:34;;;;;;;31.67;18.93;;;;;;;9.52;100.00;94790.25;5085305;28;20223;-76
2023/05/06 04:34:01;;;;;;;31.37;18.53;;;;;;;9.69;100.00;94793.94;5072321;28;20553;-75
2023/05/06 04:36:28;;;;;;;36.33;18.17;;;;;;;9.85;100.00;94796.03;5085523;28;20228;-77
2023/05/06 04:38:56;;;;;;;30.63;18.93;;;;;;;10.01;100.00;94803.31;5089985;28;20196;-77
2023/05/06 04:41:24;;;;;;;30.03;18.00;;;;;;;10.15;100.00;94807.44;5088332;28;20189;-77
2023/05/06 04:43:51;;;;;;;31.43;17.20;;;;;;;10.27;100.00;94797.94;5085307;28;20198;-76
2023/05/06 04:46:22;;;;;;;29.13;17.37;;;;;;;10.32;100.00;94792.13;5087093;28;20266;-78
2023/05/06 04:48:49;;;;;;;26.23;16.10;;;;;;;10.36;100.00;94789.91;5075514;28;20193;-77
2023/05/06 04:51:16;;;;;;;26.97;16.20;;;;;;;10.56;100.00;94800.91;5087640;28;20205;-78
2023/05/06 04:53:43;;;;;;;25.33;17.10;;;;;;;10.72;100.00;94819.34;5092294;28;20188;-78
2023/05/06 04:56:15;;;;;;;30.23;16.87;;;;;;;10.75;100.00;94815.50;5079232;28;20308;-78
2023/05/06 04:58:53;;;;;;;31.13;19.10;;;;;;;10.87;100.00;94819.00;5073874;28;20213;-77
2023/05/06 05:01:21;;;;;;;36.23;18.80;;;;;;;11.01;100.00;94824.84;5094193;28;20184;-77
2023/05/06 05:03:48;;;;;;;26.40;17.30;;;;;;;11.14;100.00;94824.72;5084437;28;20208;-76
2023/05/06 05:06:15;;;;;;;33.80;17.60;;;;;;;11.25;100.00;94827.41;5077744;28;20194;-76
2023/05/06 05:08:42;;;;;;;31.00;18.60;;;;;;;11.33;100.00;94813.28;5086897;28;20643;-77
2023/05/06 05:11:09;;;;;;;38.37;21.20;;;;;;;11.48;100.00;94828.53;5074521;28;20197;-76
2023/05/06 05:16:28;;;;;;;32.17;18.80;;;;;;;11.67;100.00;94837.91;5061143;28;20209;-77
2023/05/06 05:18:55;;;;;;;29.13;15.77;;;;;;;11.70;100.00;94838.28;5069392;28;20198;-77
2023/05/06 05:21:21;;;;;;;27.83;16.30;;;;;;;11.72;100.00;94838.06;5054639;28;20616;-77
2023/05/06 05:24:03;;;;;;;23.47;16.20;;;;;;;11.86;100.00;94834.28;5069121;28;20197;-79
2023/05/06 05:26:30;;;;;;;26.40;18.00;;;;;;;11.94;100.00;94837.38;5071668;28;20189;-79
2023/05/06 05:28:57;;;;;;;29.37;18.73;;;;;;;12.01;100.00;94836.47;5052009;28;20202;-79
2023/05/06 05:31:24;;;;;;;28.80;17.20;;;;;;;12.12;100.00;94822.69;5062142;28;20202;-79
2023/05/06 05:33:52;;;;;;;34.90;17.33;;;;;;;12.21;100.00;94834.38;5053570;28;20225;-79
2023/05/06 05:36:19;;;;;;;29.30;18.33;;;;;;;12.31;100.00;94835.44;5059656;28;20228;-79
2023/05/06 05:38:46;;;;;;;27.60;17.40;;;;;;;12.37;100.00;94829.31;5067702;28;20198;-76
2023/05/06 05:41:13;;;;;;;25.83;17.10;;;;;;;12.41;100.00;94830.44;5062162;28;20547;-78
2023/05/06 05:43:40;;;;;;;30.00;17.53;;;;;;;12.39;100.00;94826.47;5062849;28;20295;-78
2023/05/06 05:46:06;;;;;;;27.47;16.40;;;;;;;12.46;100.00;94830.59;5069046;28;20751;-78
2023/05/06 05:48:33;;;;;;;20.80;14.20;;;;;;;12.47;100.00;94816.53;5072232;28;20193;-76
2023/05/06 05:51:02;;;;;;;20.40;13.23;;;;;;;12.53;100.00;94818.22;5064005;28;20197;-77
2023/05/06 05:53:29;;;;;;;16.33;11.47;;;;;;;12.76;100.00;94827.88;5066739;28;20194;-78
2023/05/06 05:55:56;;;;;;;18.57;11.00;;;;;;;12.76;98.69;94819.25;5062181;28;20221;-77
2023/05/06 05:58:23;;;;;;;16.33;10.57;;;;;;;12.88;98.84;94838.31;5066257;28;20605;-76
2023/05/06 06:00:49;;;;;;;17.70;11.77;;;;;;;12.93;98.49;94841.03;5066572;28;20224;-77
2023/05/06 06:03:17;;;;;;;13.93;10.37;;;;;;;13.00;97.97;94844.31;5068351;28;20193;-76
2023/05/06 06:05:44;;;;;;;18.17;11.03;;;;;;;13.04;97.51;94838.41;5063811;28;20197;-78
2023/05/06 06:08:13;;;;;;;16.93;10.80;;;;;;;13.11;97.87;94847.97;5065063;28;20213;-77
2023/05/06 06:10:40;;;;;;;18.47;10.93;;;;;;;13.17;97.08;94849.66;5073180;28;20186;-77
2023/05/06 06:13:07;;;;;;;16.27;11.00;;;;;;;13.24;96.22;94845.13;5066638;28;20198;-79
2023/05/06 06:15:34;;;;;;;20.57;11.60;;;;;;;13.29;95.39;94851.25;5077666;28;20221;-78
2023/05/06 06:18:01;;;;;;;17.93;11.77;;;;;;;13.40;95.29;94844.41;5093029;28;20193;-77
2023/05/06 06:20:28;;;;;;;17.80;11.93;;;;;;;13.45;95.86;94847.13;5083833;28;20273;-78
2023/05/06 06:22:55;;;;;;;19.50;11.90;;;;;;;13.53;94.79;94846.78;5078063;28;20201;-77
2023/05/06 06:25:23;;;;;;;19.67;12.70;;;;;;;13.54;93.99;94850.97;5091586;28;20196;-79
2023/05/06 06:27:49;;;;;;;23.50;11.23;;;;;;;13.62;93.44;94851.38;5075937;28;20202;-80
2023/05/06 06:30:16;;;;;;;18.67;11.20;;;;;;;13.59;93.00;94838.03;5080924;28;20209;-79
2023/05/06 06:32:48;;;;;;;22.40;11.63;;;;;;;13.68;92.81;94839.22;5090956;28;20193;-80
2023/05/06 06:35:15;;;;;;;21.07;12.40;;;;;;;13.78;93.39;94849.06;5085947;28;20353;-76
2023/05/06 06:37:42;;;;;;;19.90;12.20;;;;;;;13.91;91.92;94851.44;5085474;28;20204;-76
2023/05/06 06:40:12;;;;;;;19.97;10.33;;;;;;;13.88;91.28;94847.44;5092049;28;20250;-76
2023/05/06 06:42:40;;;;;;;19.10;10.37;;;;;;;13.80;91.10;94855.66;5080381;28;20258;-79
2023/05/06 06:45:08;;;;;;;22.77;10.83;;;;;;;13.81;91.01;94852.03;5082874;28;20197;-76
2023/05/06 06:47:35;;;;;;;17.73;10.63;;;;;;;13.79;91.36;94851.47;5089127;28;20287;-76
2023/05/06 06:50:02;;;;;;;15.60;10.97;;;;;;;13.86;91.37;94856.53;5084911;28;20197;-75
2023/05/06 06:52:29;;;;;;;17.00;11.17;;;;;;;13.88;91.29;94851.91;5082863;28;20198;-76
2023/05/06 06:54:55;;;;;;;16.27;10.70;;;;;;;13.83;91.36;94855.19;5091964;28;20254;-75
2023/05/06 06:57:22;;;;;;;17.70;10.97;;;;;;;13.92;91.20;94860.84;5085179;28;20230;-75
2023/05/06 06:59:52;;;;;;;16.77;10.50;;;;;;;13.98;91.24;94859.91;5083482;28;20210;-75
2023/05/06 07:02:19;;;;;;;14.30;10.80;;;;;;;14.06;91.69;94864.75;5087402;28;20253;-75
2023/05/06 07:04:46;;;;;;;15.67;10.70;;;;;;;14.16;91.00;94867.56;5084767;28;20259;-76
2023/05/06 07:07:12;;;;;;;14.40;9.87;;;;;;;14.19;90.66;94867.09;5084951;28;20196;-76
2023/05/06 07:09:39;;;;;;;12.00;9.37;;;;;;;14.18;90.51;94870.72;5092075;28;20581;-76
2023/05/06 07:12:06;;;;;;;16.97;9.33;;;;;;;14.28;90.61;94870.94;5084118;28;20261;-79
2023/05/06 07:14:33;;;;;;;12.87;9.50;;;;;;;14.27;90.19;94866.72;5075835;28;20229;-78
2023/05/06 07:17:01;;;;;;;18.70;10.10;;;;;;;14.36;88.79;94877.63;5071169;28;20209;-74
2023/05/06 07:19:30;;;;;;;13.20;9.43;;;;;;;14.47;89.19;94874.94;5062376;28;20254;-74
2023/05/06 07:21:57;;;;;;;14.53;9.57;;;;;;;14.55;89.07;94868.50;5057322;28;20192;-74
2023/05/06 07:24:24;;;;;;;14.23;9.40;;;;;;;14.72;89.89;94871.94;5071365;28;20201;-74
2023/05/06 07:26:50;;;;;;;13.90;9.63;;;;;;;14.84;88.85;94875.25;5062155;28;20198;-74
2023/05/06 07:29:17;;;;;;;13.77;9.37;;;;;;;14.96;89.02;94883.03;5056979;28;20251;-76
2023/05/06 07:31:44;;;;;;;12.00;9.13;;;;;;;15.03;88.87;94884.47;5070795;28;20652;-76
2023/05/06 07:34:12;;;;;;;15.27;9.67;;;;;;;15.16;87.84;94878.09;5062861;28;20590;-76
2023/05/06 07:36:41;;;;;;;13.13;9.07;;;;;;;15.21;87.74;94880.78;5062175;28;20641;-76
2023/05/06 07:39:09;;;;;;;11.83;8.43;;;;;;;15.35;88.38;94882.81;5071152;28;20582;-76
2023/05/06 07:41:36;;;;;;;11.77;8.60;;;;;;;15.48;87.60;94886.97;5057210;28;20225;-76
2023/05/06 07:44:03;;;;;;;10.10;8.10;;;;;;;15.64;86.35;94887.97;5062081;28;20235;-76
2023/05/06 07:46:30;;;;;;;12.43;8.30;;;;;;;15.70;85.87;94889.59;5071001;28;20609;-76
2023/05/06 07:48:56;;;;;;;13.90;9.30;;;;;;;15.78;84.85;94881.31;5060329;28;20656;-76
2023/05/06 07:51:25;;;;;;;13.27;7.90;;;;;;;15.92;84.99;94882.53;5062380;28;20217;-76
2023/05/06 07:53:52;;;;;;;11.87;8.57;;;;;;;15.99;84.14;94884.97;5070501;28;20213;-76
2023/05/06 07:56:19;;;;;;;10.70;7.50;;;;;;;15.90;83.98;94880.13;5061661;28;20286;-76
2023/05/06 07:58:47;;;;;;;11.63;7.30;;;;;;;15.88;83.38;94884.84;5061817;28;20208;-75
2023/05/06 08:01:14;;;;;;;10.83;7.50;;;;;;;15.90;83.91;94880.13;5070657;28;20186;-76
2023/05/06 08:03:41;;;;;;;10.53;7.97;;;;;;;15.87;84.74;94877.22;5061494;28;20205;-75
2023/05/06 08:06:08;;;;;;;13.03;7.90;;;;;;;15.72;85.34;94877.03;5061509;28;20196;-76
2023/05/06 08:08:36;;;;;;;14.83;7.63;;;;;;;15.45;86.40;94876.13;5070368;28;20190;-77
2023/05/06 08:11:03;;;;;;;11.13;7.53;;;;;;;15.09;88.33;94872.25;5061569;28;20200;-77
2023/05/06 08:13:32;;;;;;;10.57;7.80;;;;;;;15.02;89.55;94876.84;5061568;28;20286;-75
2023/05/06 08:16:01;;;;;;;16.10;7.73;;;;;;;15.14;90.03;94872.31;5083612;28;20220;-76
2023/05/06 08:18:27;;;;;;;11.23;7.23;;;;;;;15.35;88.38;94876.81;5084567;28;20284;-76
2023/05/06 08:20:54;;;;;;;11.67;7.30;;;;;;;15.58;87.74;94878.44;5083753;28;20200;-76
2023/05/06 08:23:21;;;;;;;10.83;6.83;;;;;;;15.78;86.23;94878.69;5089642;28;20272;-76
2023/05/06 08:25:50;;;;;;;11.83;7.37;;;;;;;15.89;85.97;94878.56;5081807;28;20246;-76
2023/05/06 08:28:16;;;;;;;7.63;6.50;;;;;;;15.96;84.42;94883.59;5078580;28;20219;-77
2023/05/06 08:30:46;;;;;;;8.43;6.83;;;;;;;16.06;84.41;94883.72;5089006;28;20204;-76
2023/05/06 08:33:13;;;;;;;16.50;6.83;;;;;;;16.14;83.94;94888.53;5084942;28;20641;-76
2023/05/06 08:35:39;;;;;;;9.80;6.97;;;;;;;16.20;84.35;94881.50;5083365;28;20638;-75
2023/05/06 08:38:06;;;;;;;9.40;6.80;;;;;;;16.31;83.57;94881.38;5088531;28;21003;-83
2023/05/06 08:40:33;;;;;;;14.47;7.10;;;;;;;16.43;82.69;94883.84;5085819;28;20204;-78
2023/05/06 08:43:03;;;;;;;14.30;6.93;;;;;;;16.53;82.39;94885.78;5083660;28;20686;-76
2023/05/06 08:45:30;;;;;;;9.60;6.33;;;;;;;16.59;82.17;94890.84;5087001;28;20288;-77
2023/05/06 08:47:57;;;;;;;10.80;6.40;;;;;;;16.72;81.59;94887.81;5086178;28;20196;-77
2023/05/06 08:50:25;;;;;;;7.60;6.03;;;;;;;16.80;80.64;94891.81;5083526;28;20193;-77
2023/05/06 08:52:52;;;;;;;8.07;5.73;;;;;;;16.90;79.85;94886.66;5087208;28;20201;-77
2023/05/06 08:55:19;;;;;;;13.07;6.60;;;;;;;16.99;79.30;94888.56;5086110;28;20608;-77
2023/05/06 08:57:47;;;;;;;7.97;6.10;;;;;;;17.11;78.29;94880.50;5082805;28;20224;-76
2023/05/06 09:00:16;;;;;;;9.97;6.13;;;;;;;17.22;78.27;94879.53;5086833;28;20655;-77
2023/05/06 09:02:43;;;;;;;13.43;6.30;;;;;;;17.23;78.16;94867.94;5087020;28;20247;-76
2023/05/06 09:05:10;;;;;;;10.07;6.20;;;;;;;17.18;78.91;94870.56;5083108;28;20200;-77
2023/05/06 09:07:37;;;;;;;9.37;6.63;;;;;;;17.37;78.36;94873.56;5081136;28;20224;-76
2023/05/06 09:10:12;;;;;;;8.87;5.90;;;;;;;17.47;78.72;94871.78;5088133;28;20202;-77
2023/05/06 09:12:39;;;;;;;10.23;6.07;;;;;;;17.58;78.03;94859.50;5078272;28;20659;-76
2023/05/06 09:15:07;;;;;;;9.30;5.78;;;;;;;17.67;77.83;94860.59;5083528;28;20232;-75
2023/05/06 09:17:36;;;;;;;8.75;6.18;;;;;;;17.78;77.95;94856.16;5089377;28;20212;-75
2023/05/06 09:20:05;;;;;;;7.60;6.03;;;;;;;17.78;74.98;94850.91;5083257;28;20258;-75
2023/05/06 09:22:32;;;;;;;7.32;6.22;;;;;;;17.70;75.39;94846.94;5083592;28;20197;-78
2023/05/06 09:24:59;;;;;;;9.48;6.10;;;;;;;17.77;75.69;94841.47;5094278;28;20199;-75
2023/05/06 09:27:27;;;;;;;7.07;5.53;;;;;;;17.88;76.80;94843.06;5087119;28;20196;-75
2023/05/06 09:30:02;;;;;;;9.55;6.15;;;;;;;17.99;76.55;94840.22;5086610;28;20572;-77
2023/05/06 09:32:28;;;;;;;12.50;6.05;;;;;;;18.09;76.04;94834.97;5093983;28;20241;-76
2023/05/06 09:34:57;;;;;;;8.38;5.32;;;;;;;18.25;76.54;94833.16;5077209;28;20242;-75
2023/05/06 09:37:25;;;;;;;10.32;6.10;;;;;;;18.48;75.76;94843.22;5085220;28;20209;-76
2023/05/06 09:39:55;;;;;;;8.27;5.47;;;;;;;18.64;73.55;94834.28;5092798;28;20305;-75
2023/05/06 09:42:24;;;;;;;8.90;5.68;;;;;;;18.78;72.05;94839.03;5085673;28;20200;-78
2023/05/06 09:44:52;;;;;;;9.98;5.55;;;;;;;18.89;72.24;94837.97;5083846;28;20737;-75
2023/05/06 09:47:19;;;;;;;6.70;5.45;;;;;;;19.03;70.91;94844.28;5085432;28;20223;-75
2023/05/06 09:49:46;;;;;;;10.10;5.72;;;;;;;19.16;69.96;94833.97;5086205;28;20616;-76
2023/05/06 09:52:14;;;;;;;14.90;5.88;;;;;;;19.38;70.91;94831.03;5085693;28;20196;-75
2023/05/06 09:54:41;;;;;;;7.10;5.50;;;;;;;19.64;69.77;94829.13;5093035;28;20708;-75
2023/05/06 09:57:09;;;;;;;10.80;6.00;;;;;;;19.71;67.36;94827.00;5085787;28;20212;-75
2023/05/06 09:59:36;;;;;;;9.95;5.13;;;;;;;19.81;68.77;94834.88;5086003;28;20197;-75
2023/05/06 10:02:05;;;;;;;9.13;6.38;;;;;;;19.79;67.39;94831.72;5092884;28;20223;-75
2023/05/06 10:04:35;;;;;;;9.52;5.97;;;;;;;19.69;66.84;94826.47;5086218;28;20688;-75
2023/05/06 10:07:03;;;;;;;11.55;7.25;;;;;;;19.64;68.09;94829.13;5086177;28;20197;-75
2023/05/06 10:09:32;;;;;;;11.27;5.75;;;;;;;19.72;67.75;94829.38;5093231;28;20271;-76
2023/05/06 10:12:00;;;;;;;6.70;5.30;;;;;;;19.82;66.42;94836.47;5084372;28;20615;-75
2023/05/06 10:14:27;;;;;;;15.32;8.82;;;;;;;19.80;67.13;94828.00;5078545;28;20248;-76
2023/05/06 10:16:54;;;;;;;96.07;38.97;;;;;;;19.80;67.92;94825.38;5063719;28;20198;-76
2023/05/06 10:19:25;;;;;;;77.95;35.00;;;;;;;19.78;67.68;94825.66;5059422;28;20194;-75
2023/05/06 10:21:57;;;;;;;19.65;10.25;;;;;;;19.81;65.82;94824.31;5057607;28;20198;-76
2023/05/06 10:24:33;;;;;;;18.02;10.07;;;;;;;19.72;66.04;94820.66;5060452;28;20236;-76
2023/05/06 10:27:05;;;;;;;10.77;6.47;;;;;;;19.76;65.62;94827.78;5059833;28;20702;-77
2023/05/06 10:29:34;;;;;;;8.88;5.80;;;;;;;19.61;65.95;94827.84;5060313;28;20251;-78
2023/05/06 10:32:02;;;;;;;14.75;7.68;;;;;;;19.53;66.81;94823.13;5060157;28;20221;-76
2023/05/06 10:34:37;;;;;;;11.25;6.80;;;;;;;19.31;66.92;94825.25;5061883;28;20197;-77
2023/05/06 10:37:05;;;;;;;27.15;14.85;;;;;;;19.21;67.65;94820.00;5060082;28;20287;-77
2023/05/06 10:39:34;;;;;;;12.32;7.55;;;;;;;19.16;68.38;94814.75;5058744;28;20285;-76
2023/05/06 10:42:01;;;;;;;9.02;6.65;;;;;;;19.09;68.18;94817.66;5062143;28;20186;-76
2023/05/06 10:44:56;;;;;;;9.25;5.80;;;;;;;18.78;68.55;94815.31;5057347;28;20243;-76
2023/05/06 10:47:22;;;;;;;8.35;5.40;;;;;;;18.85;68.93;94818.47;5056793;28;20193;-75
2023/05/06 10:50:20;;;;;;;11.63;5.68;;;;;;;19.02;68.57;94822.41;5062122;28;20205;-76
2023/05/06 10:52:48;;;;;;;7.53;5.40;;;;;;;19.11;67.96;94814.75;5060037;28;20220;-76
2023/05/06 10:55:30;;;;;;;7.32;5.28;;;;;;;19.25;67.28;94815.75;5060833;28;20646;-77
2023/05/06 10:58:00;;;;;;;9.35;5.13;;;;;;;19.45;66.04;94820.25;5053243;28;20284;-77
2023/05/06 11:00:31;;;;;;;10.25;5.80;;;;;;;19.50;66.27;94814.94;5061971;28;20201;-77
2023/05/06 11:03:00;;;;;;;7.07;5.05;;;;;;;19.64;66.49;94819.38;5054164;28;20209;-77
2023/05/06 11:05:27;;;;;;;8.05;4.90;;;;;;;19.83;64.07;94811.63;5058607;28;20207;-77
2023/05/06 11:08:08;;;;;;;8.80;5.00;;;;;;;19.94;63.89;94818.44;5059583;28;20189;-77
2023/05/06 11:10:37;;;;;;;6.65;4.45;;;;;;;19.99;64.33;94807.09;5057025;28;20217;-76
2023/05/06 11:13:24;;;;;;;8.07;5.03;;;;;;;20.16;63.11;94815.44;5058432;28;20251;-75
2023/05/06 11:15:52;;;;;;;8.88;5.45;;;;;;;20.26;63.60;94813.53;5084430;28;20603;-75
2023/05/06 11:18:43;;;;;;;8.88;5.35;;;;;;;20.46;62.83;94814.47;5087603;28;20759;-75
2023/05/06 11:21:38;;;;;;;6.57;4.25;;;;;;;20.73;61.11;94814.78;5083153;28;20196;-76
2023/05/06 11:24:13;;;;;;;7.15;4.50;;;;;;;20.86;59.59;94819.44;5081098;28;20207;-76
2023/05/06 11:26:43;;;;;;;6.10;4.60;;;;;;;20.75;58.60;94817.94;5086332;28;20318;-76
2023/05/06 11:29:12;;;;;;;7.30;4.13;;;;;;;20.68;56.75;94812.97;5085536;28;20220;-76